Jacob Lake, Arizona
Current Conditions -  °F | °C
As of 4:35 PM on Saturday 20 Dec 2014 (Local Time) from KAZC Reporting Station
Scattered Clouds Scattered Clouds  
Wind Chill: 47°   Ceiling: Unl
Heat Index: 47°   Visibility: 10mi
Dew Point: 34°   Wind: 0mph
Humidity: 62%   Direction: NA
Pressure: 30.15"   Gusts: NA
Location:  36.9484°N, 112.529°W
Report Text: KAZC 202335Z AUTO 00000KT 10SM SCT050 SCT065 SCT080 08/01 A3015 RMK AO2 T00820012
Loading
Personal Weather Stations






























Interactive Weather Map New forecast layout! Learn more

10-Day Weather Forecast

Advertisements
Track Severe Weather on mobile